Time;durP1;ratioP1;P1;durP2;ratioP2;P2;SDS_P1;SDS_P2;PMS_P1;PMS_P2;Temp;Humidity;BMP_temperature;BMP_pressure;BME280_temperature;BME280_humidity;BME280_pressure;Samples;Min_cycle;Max_cycle;Signal;HPM_P1;HPM_P2
2022/01/07 00:00:25;;;;;;;9.63;4.53;;;4.00;80.90;;;;;;5032959;28;20491;-84
2022/01/07 00:02:55;;;;;;;13.35;4.70;;;4.00;81.00;;;;;;5033636;28;20487;-85
2022/01/07 00:05:27;;;;;;;14.95;4.72;;;4.00;81.10;;;;;;5033270;28;20053;-85
2022/01/07 00:07:54;;;;;;;10.27;4.65;;;4.00;81.20;;;;;;5033654;28;20048;-85
2022/01/07 00:10:22;;;;;;;11.18;4.93;;;4.00;81.20;;;;;;5033662;28;20041;-85
2022/01/07 00:12:50;;;;;;;13.68;4.38;;;4.00;81.30;;;;;;5033417;28;20524;-85
2022/01/07 00:15:19;;;;;;;11.82;4.95;;;4.00;81.40;;;;;;5030834;28;20495;-85
2022/01/07 00:17:47;;;;;;;11.98;5.05;;;4.00;81.50;;;;;;5033631;28;20063;-85
2022/01/07 00:20:14;;;;;;;14.60;4.38;;;4.00;81.60;;;;;;5033221;28;20116;-85
2022/01/07 00:22:43;;;;;;;14.20;4.78;;;4.00;81.60;;;;;;5033301;28;20049;-85
2022/01/07 00:25:12;;;;;;;12.13;4.63;;;4.00;81.70;;;;;;5033427;28;20049;-85
2022/01/07 00:27:39;;;;;;;9.50;4.45;;;4.00;81.80;;;;;;5032619;28;20041;-85
2022/01/07 00:30:09;;;;;;;14.15;4.50;;;4.00;81.90;;;;;;5033425;28;20049;-85
2022/01/07 00:32:36;;;;;;;16.65;4.35;;;4.00;81.90;;;;;;5032995;28;20045;-85
2022/01/07 00:35:04;;;;;;;14.20;5.13;;;3.90;82.00;;;;;;5032838;28;20045;-85
2022/01/07 00:37:32;;;;;;;12.05;4.70;;;4.00;82.00;;;;;;5033220;28;20128;-85
2022/01/07 00:39:59;;;;;;;15.90;5.05;;;4.00;82.10;;;;;;5033361;28;20053;-85
2022/01/07 00:42:26;;;;;;;20.83;5.22;;;4.00;82.20;;;;;;5032339;28;20403;-85
2022/01/07 00:44:53;;;;;;;14.55;4.82;;;4.00;82.20;;;;;;5031860;28;20135;-85
2022/01/07 00:47:20;;;;;;;12.02;4.57;;;4.00;82.30;;;;;;5031916;28;20057;-84
2022/01/07 00:49:47;;;;;;;10.60;4.90;;;4.00;82.30;;;;;;5032616;28;20049;-84
2022/01/07 00:52:14;;;;;;;16.17;5.30;;;4.00;82.40;;;;;;5033166;28;20048;-85
2022/01/07 00:54:41;;;;;;;12.63;5.13;;;4.00;82.40;;;;;;5032142;28;20064;-85
2022/01/07 00:57:08;;;;;;;13.95;5.13;;;4.00;82.50;;;;;;5033324;28;20051;-85
2022/01/07 00:59:35;;;;;;;13.18;4.30;;;4.00;82.50;;;;;;5033010;28;20052;-85
2022/01/07 01:02:03;;;;;;;11.77;4.65;;;4.00;82.60;;;;;;5032799;28;20068;-85
2022/01/07 01:04:42;;;;;;;12.07;4.57;;;4.00;82.60;;;;;;5032437;28;20061;-85
2022/01/07 01:07:11;;;;;;;12.23;4.32;;;4.00;82.70;;;;;;5032953;28;20071;-85
2022/01/07 01:09:38;;;;;;;12.70;4.78;;;4.00;82.80;;;;;;5032000;28;20054;-85
2022/01/07 01:12:07;;;;;;;11.90;5.30;;;4.00;82.80;;;;;;5032653;28;20128;-85
2022/01/07 01:14:34;;;;;;;10.95;4.68;;;4.00;82.80;;;;;;5032816;28;20045;-85
2022/01/07 01:17:01;;;;;;;11.95;4.72;;;4.00;82.90;;;;;;5032470;28;20045;-85
2022/01/07 01:19:28;;;;;;;15.23;4.75;;;4.00;82.90;;;;;;5032772;28;20042;-85
2022/01/07 01:21:55;;;;;;;12.63;5.25;;;4.00;83.00;;;;;;5032885;28;20418;-85
2022/01/07 01:24:23;;;;;;;14.93;4.93;;;4.00;83.00;;;;;;5032024;28;20049;-85
2022/01/07 01:26:50;;;;;;;15.88;5.72;;;4.00;83.10;;;;;;5032616;28;20409;-85
2022/01/07 01:29:20;;;;;;;13.98;5.13;;;4.00;83.10;;;;;;5032668;28;20052;-85
2022/01/07 01:31:47;;;;;;;16.90;5.78;;;4.00;83.20;;;;;;5032319;28;20500;-85
2022/01/07 01:34:14;;;;;;;13.40;5.93;;;4.00;83.20;;;;;;5032720;28;20417;-86
2022/01/07 01:36:42;;;;;;;15.18;6.50;;;4.00;83.20;;;;;;5031724;28;20057;-84
2022/01/07 01:39:12;;;;;;;13.15;5.70;;;4.10;83.30;;;;;;5033038;28;20137;-86
2022/01/07 01:41:43;;;;;;;10.60;5.35;;;4.10;83.30;;;;;;5031401;28;20124;-85
2022/01/07 01:44:10;;;;;;;17.27;5.90;;;4.10;83.30;;;;;;5032465;28;20433;-85
2022/01/07 01:46:37;;;;;;;14.05;6.70;;;4.10;83.40;;;;;;5032197;28;20049;-85
2022/01/07 01:49:04;;;;;;;19.00;6.80;;;4.10;83.40;;;;;;5032493;28;20041;-85
2022/01/07 01:51:33;;;;;;;14.15;5.97;;;4.10;83.40;;;;;;5031724;28;20050;-85
2022/01/07 01:54:01;;;;;;;15.27;5.95;;;4.10;83.40;;;;;;5034558;28;20420;-85
2022/01/07 01:56:28;;;;;;;12.25;6.28;;;4.20;83.40;;;;;;5034964;28;20046;-85
2022/01/07 01:58:55;;;;;;;16.67;6.05;;;4.10;83.40;;;;;;5036047;28;20052;-85
2022/01/07 02:01:22;;;;;;;13.20;7.28;;;4.20;83.50;;;;;;5034562;28;20045;-85
2022/01/07 02:03:49;;;;;;;10.68;6.07;;;4.20;83.50;;;;;;5036049;28;20050;-85
2022/01/07 02:06:16;;;;;;;15.82;5.95;;;4.20;83.50;;;;;;5032821;28;20049;-85
2022/01/07 02:08:44;;;;;;;18.05;6.22;;;4.20;83.50;;;;;;5035899;28;20049;-85
2022/01/07 02:11:11;;;;;;;18.25;6.88;;;4.20;83.50;;;;;;5035811;28;20053;-86
2022/01/07 02:13:39;;;;;;;12.10;6.03;;;4.20;83.50;;;;;;5035780;28;20395;-85
2022/01/07 02:16:07;;;;;;;12.52;5.90;;;4.20;83.50;;;;;;5035486;28;20047;-86
2022/01/07 02:18:34;;;;;;;15.07;6.22;;;4.30;83.60;;;;;;5035022;28;20560;-85
2022/01/07 02:21:02;;;;;;;10.63;4.90;;;4.20;83.60;;;;;;5037211;28;20053;-86
2022/01/07 02:23:29;;;;;;;13.23;5.20;;;4.30;83.60;;;;;;5035497;28;20064;-85
2022/01/07 02:25:57;;;;;;;13.77;5.28;;;4.20;83.60;;;;;;5035660;28;20047;-85
2022/01/07 02:28:25;;;;;;;10.48;5.47;;;4.30;83.60;;;;;;5035497;28;20046;-86
2022/01/07 02:30:52;;;;;;;10.85;5.50;;;4.30;83.60;;;;;;5035189;28;20418;-85
2022/01/07 02:33:19;;;;;;;10.20;5.40;;;4.30;83.60;;;;;;5034684;28;20052;-86
2022/01/07 02:35:46;;;;;;;14.27;4.93;;;4.30;83.60;;;;;;5035251;28;20042;-86
2022/01/07 02:38:15;;;;;;;10.73;4.65;;;4.30;83.60;;;;;;5035325;28;20045;-85
2022/01/07 02:40:42;;;;;;;13.15;4.43;;;4.30;83.60;;;;;;5035314;28;20080;-85
2022/01/07 02:43:10;;;;;;;11.75;4.72;;;4.40;83.60;;;;;;5035314;28;20052;-85
2022/01/07 02:45:37;;;;;;;15.30;4.65;;;4.40;83.60;;;;;;5034059;28;20063;-85
2022/01/07 02:48:05;;;;;;;12.45;4.72;;;4.40;83.60;;;;;;5034832;28;20045;-85
2022/01/07 02:50:36;;;;;;;13.70;4.47;;;4.40;83.70;;;;;;5035150;28;20042;-85
2022/01/07 02:53:07;;;;;;;12.40;5.05;;;4.40;83.70;;;;;;5034992;28;20041;-85
2022/01/07 02:55:35;;;;;;;20.42;4.53;;;4.40;83.70;;;;;;5035136;28;20409;-85
2022/01/07 02:58:02;;;;;;;10.75;4.20;;;4.40;83.70;;;;;;5035097;28;20056;-85
2022/01/07 03:00:30;;;;;;;8.35;4.53;;;4.40;83.70;;;;;;5033871;28;20049;-85
2022/01/07 03:02:59;;;;;;;9.25;4.15;;;4.40;83.70;;;;;;5034741;28;20498;-86
2022/01/07 03:05:26;;;;;;;14.07;4.40;;;4.40;83.70;;;;;;5033646;28;20560;-86
2022/01/07 03:07:53;;;;;;;12.15;4.00;;;4.40;83.70;;;;;;5034459;28;20053;-85
2022/01/07 03:10:26;;;;;;;13.73;4.80;;;4.40;83.70;;;;;;5034896;28;20486;-86
2022/01/07 03:13:00;;;;;;;12.10;4.68;;;4.40;83.70;;;;;;5034395;28;20505;-86
2022/01/07 03:15:28;;;;;;;10.15;4.00;;;4.40;83.70;;;;;;5033773;28;20049;-86
2022/01/07 03:17:55;;;;;;;10.68;4.50;;;4.40;83.70;;;;;;5033551;28;20076;-85
2022/01/07 03:20:23;;;;;;;10.63;4.30;;;4.40;83.70;;;;;;5034463;28;20049;-85
2022/01/07 03:22:50;;;;;;;8.82;4.80;;;4.50;83.70;;;;;;5034466;28;20048;-86
2022/01/07 03:25:18;;;;;;;10.93;4.22;;;4.40;83.70;;;;;;5034338;28;20510;-85
2022/01/07 03:27:45;;;;;;;9.75;5.07;;;4.40;83.70;;;;;;5033749;28;20049;-86
2022/01/07 03:30:15;;;;;;;12.13;4.82;;;4.50;83.70;;;;;;5032565;28;20060;-86
2022/01/07 03:32:44;;;;;;;8.50;4.03;;;4.50;83.70;;;;;;5034257;28;20071;-86
2022/01/07 03:35:12;;;;;;;12.30;4.50;;;4.50;83.70;;;;;;5034226;28;20552;-86
2022/01/07 03:37:40;;;;;;;11.50;4.40;;;4.50;83.70;;;;;;5034196;28;20417;-86
2022/01/07 03:40:09;;;;;;;11.13;4.13;;;4.50;83.70;;;;;;5034372;28;20060;-86
2022/01/07 03:42:36;;;;;;;9.63;3.80;;;4.50;83.70;;;;;;5032784;28;20417;-85
2022/01/07 03:45:05;;;;;;;14.25;4.35;;;4.50;83.70;;;;;;5033661;28;20045;-86
2022/01/07 03:47:32;;;;;;;14.82;4.30;;;4.50;83.70;;;;;;5033857;28;20052;-86
2022/01/07 03:49:59;;;;;;;11.23;4.50;;;4.50;83.70;;;;;;5034021;28;20057;-86
2022/01/07 03:52:26;;;;;;;7.68;4.30;;;4.50;83.80;;;;;;5034042;28;20044;-85
2022/01/07 03:54:53;;;;;;;11.02;4.00;;;4.50;83.80;;;;;;5032781;28;20417;-86
2022/01/07 03:57:20;;;;;;;11.30;4.43;;;4.50;83.80;;;;;;5031574;28;20052;-85
2022/01/07 03:59:48;;;;;;;16.50;4.53;;;4.50;83.80;;;;;;5033756;28;20053;-85
2022/01/07 04:02:15;;;;;;;9.70;4.78;;;4.50;83.80;;;;;;5033630;28;20037;-85
2022/01/07 04:04:42;;;;;;;15.48;4.82;;;4.50;83.80;;;;;;5033661;28;20081;-85
2022/01/07 04:07:09;;;;;;;11.50;4.90;;;4.50;83.80;;;;;;5033557;28;20060;-86
2022/01/07 04:09:36;;;;;;;13.68;4.85;;;4.50;83.80;;;;;;5032818;28;20045;-85
2022/01/07 04:12:04;;;;;;;10.75;4.22;;;4.50;83.90;;;;;;5032905;28;20057;-86
2022/01/07 04:14:31;;;;;;;7.00;4.07;;;4.50;83.90;;;;;;5033415;28;20045;-85
2022/01/07 04:17:01;;;;;;;11.02;4.60;;;4.50;83.90;;;;;;5033286;28;20063;-86
2022/01/07 04:19:28;;;;;;;14.93;4.72;;;4.50;83.90;;;;;;5033527;28;20512;-86
2022/01/07 04:21:56;;;;;;;12.23;4.20;;;4.50;83.90;;;;;;5033651;28;20061;-85
2022/01/07 04:24:23;;;;;;;9.85;4.70;;;4.50;84.00;;;;;;5032474;28;20055;-86
2022/01/07 04:26:50;;;;;;;11.35;4.22;;;4.50;84.00;;;;;;5032827;28;20041;-86
2022/01/07 04:29:17;;;;;;;11.32;4.38;;;4.50;84.00;;;;;;5033222;28;20423;-85
2022/01/07 04:31:44;;;;;;;12.35;4.93;;;4.50;84.00;;;;;;5033365;28;20045;-86
2022/01/07 04:34:11;;;;;;;11.32;4.95;;;4.50;84.00;;;;;;5033367;28;20513;-86
2022/01/07 04:36:38;;;;;;;6.53;4.22;;;4.50;84.00;;;;;;5032443;28;20049;-86
2022/01/07 04:39:05;;;;;;;11.02;4.18;;;4.50;84.10;;;;;;5033037;28;20057;-86
2022/01/07 04:41:32;;;;;;;9.57;3.75;;;4.50;84.10;;;;;;5032779;28;20052;-85
2022/01/07 04:43:59;;;;;;;9.02;4.68;;;4.50;84.10;;;;;;5033033;28;20429;-85
2022/01/07 04:46:26;;;;;;;9.75;4.38;;;4.60;84.10;;;;;;5033123;28;20053;-85
2022/01/07 04:48:53;;;;;;;11.40;3.95;;;4.60;84.10;;;;;;5033116;28;20540;-85
2022/01/07 04:51:20;;;;;;;9.68;4.20;;;4.60;84.10;;;;;;5031191;28;20049;-85
2022/01/07 04:53:47;;;;;;;11.02;3.83;;;4.60;84.20;;;;;;5033136;28;20052;-86
2022/01/07 04:56:14;;;;;;;10.65;3.95;;;4.60;84.20;;;;;;5032670;28;20059;-85
2022/01/07 04:58:41;;;;;;;11.23;3.65;;;4.60;84.30;;;;;;5031752;28;20049;-85
2022/01/07 05:01:08;;;;;;;7.95;3.58;;;4.60;84.30;;;;;;5033185;28;20048;-85
2022/01/07 05:03:35;;;;;;;12.48;4.22;;;4.60;84.40;;;;;;5032051;28;20057;-86
2022/01/07 05:06:22;;;;;;;10.70;3.92;;;4.70;84.40;;;;;;5034157;28;20088;-86
2022/01/07 05:08:49;;;;;;;12.10;4.20;;;4.70;84.40;;;;;;5032504;28;20524;-85
2022/01/07 05:11:16;;;;;;;7.97;3.70;;;4.70;84.50;;;;;;5032794;28;20050;-85
2022/01/07 05:13:43;;;;;;;9.98;4.05;;;4.70;84.50;;;;;;5032922;28;20046;-85
2022/01/07 05:16:10;;;;;;;8.60;4.00;;;4.70;84.50;;;;;;5032871;28;20065;-85
2022/01/07 05:18:37;;;;;;;12.93;4.10;;;4.80;84.60;;;;;;5031936;28;20049;-85
2022/01/07 05:21:05;;;;;;;5.95;2.17;;;4.70;84.60;;;;;;5032585;28;20053;-84
2022/01/07 05:23:32;;;;;;;7.38;3.08;;;4.80;84.60;;;;;;5031201;28;20041;-84
2022/01/07 05:25:59;;;;;;;7.45;2.28;;;4.80;84.60;;;;;;5032651;28;20056;-84
2022/01/07 05:28:26;;;;;;;5.63;2.00;;;4.80;84.60;;;;;;5034201;28;20053;-84
2022/01/07 05:30:53;;;;;;;10.02;1.70;;;4.80;84.60;;;;;;5036724;28;20053;-85
2022/01/07 05:33:20;;;;;;;4.32;1.23;;;4.80;84.60;;;;;;5035784;28;20144;-84
2022/01/07 05:35:52;;;;;;;5.38;1.13;;;4.80;84.50;;;;;;5036469;28;20046;-84
2022/01/07 05:38:19;;;;;;;5.78;1.42;;;4.80;84.50;;;;;;5036205;28;20050;-85
2022/01/07 05:40:46;;;;;;;6.63;1.40;;;4.80;84.40;;;;;;5036377;28;20505;-84
2022/01/07 05:43:13;;;;;;;3.92;1.13;;;4.80;84.40;;;;;;5036469;28;20046;-85
2022/01/07 05:45:44;;;;;;;7.78;1.77;;;4.80;84.30;;;;;;5035492;28;20049;-84
2022/01/07 05:48:14;;;;;;;4.63;1.58;;;4.80;84.30;;;;;;5037034;28;20061;-85
2022/01/07 05:50:41;;;;;;;3.83;1.33;;;4.80;84.30;;;;;;5036260;28;20051;-85
2022/01/07 05:53:08;;;;;;;4.22;1.60;;;4.80;84.20;;;;;;5035935;28;20052;-84
2022/01/07 05:55:35;;;;;;;4.45;1.45;;;4.80;84.20;;;;;;5035135;28;20052;-85
2022/01/07 05:58:02;;;;;;;3.50;1.25;;;4.70;84.20;;;;;;5036154;28;20429;-84
2022/01/07 06:00:29;;;;;;;3.35;1.38;;;4.80;84.20;;;;;;5035372;28;20045;-84
2022/01/07 06:02:56;;;;;;;5.35;1.60;;;4.70;84.20;;;;;;5035841;28;20383;-85
2022/01/07 06:05:23;;;;;;;5.97;1.27;;;4.70;84.20;;;;;;5035781;28;20049;-85
2022/01/07 06:07:50;;;;;;;2.80;1.25;;;4.70;84.20;;;;;;5035511;28;20052;-85
2022/01/07 06:10:17;;;;;;;4.00;1.67;;;4.70;84.10;;;;;;5036003;28;20140;-85
2022/01/07 06:12:45;;;;;;;5.15;1.48;;;4.70;84.20;;;;;;5035340;28;20060;-85
2022/01/07 06:15:12;;;;;;;6.65;2.10;;;4.70;84.10;;;;;;5035379;28;20046;-85
2022/01/07 06:17:39;;;;;;;5.63;2.00;;;4.70;84.10;;;;;;5035785;28;20046;-85
2022/01/07 06:20:08;;;;;;;6.28;1.92;;;4.70;84.10;;;;;;5035694;28;20053;-85
2022/01/07 06:22:35;;;;;;;8.98;2.72;;;4.70;84.20;;;;;;5035165;28;20046;-85
2022/01/07 06:25:03;;;;;;;7.05;2.30;;;4.70;84.10;;;;;;5035570;28;20436;-85
2022/01/07 06:27:30;;;;;;;9.30;3.13;;;4.60;84.10;;;;;;5034864;28;20143;-85
2022/01/07 06:29:57;;;;;;;9.32;3.40;;;4.70;84.20;;;;;;5035563;28;20063;-85
2022/01/07 06:32:25;;;;;;;12.05;3.47;;;4.60;84.20;;;;;;5035449;28;20041;-85
2022/01/07 06:34:52;;;;;;;9.35;3.60;;;4.60;84.20;;;;;;5035349;28;20049;-85
2022/01/07 06:37:20;;;;;;;8.10;3.15;;;4.60;84.20;;;;;;5035165;28;20048;-85
2022/01/07 06:39:48;;;;;;;9.95;3.30;;;4.60;84.20;;;;;;5035005;28;20046;-85
2022/01/07 06:42:15;;;;;;;8.38;3.22;;;4.60;84.20;;;;;;5034484;28;20053;-85
2022/01/07 06:44:42;;;;;;;9.90;2.90;;;4.60;84.20;;;;;;5035069;28;20049;-85
2022/01/07 06:47:09;;;;;;;9.10;3.63;;;4.60;84.20;;;;;;5035167;28;20041;-85
2022/01/07 06:49:36;;;;;;;13.75;3.70;;;4.60;84.30;;;;;;5035408;28;20041;-85
2022/01/07 06:52:04;;;;;;;10.27;3.35;;;4.50;84.30;;;;;;5019005;28;20136;-85
2022/01/07 06:54:31;;;;;;;10.38;3.15;;;4.50;84.30;;;;;;5034318;28;20049;-85
2022/01/07 06:56:59;;;;;;;9.35;3.90;;;4.50;84.40;;;;;;5035052;28;20055;-85
2022/01/07 06:59:26;;;;;;;8.60;3.38;;;4.50;84.40;;;;;;5034903;28;20048;-86
2022/01/07 07:01:53;;;;;;;12.93;4.32;;;4.50;84.40;;;;;;5034690;28;20047;-85
2022/01/07 07:04:20;;;;;;;8.65;3.60;;;4.50;84.50;;;;;;5034757;28;20430;-85
2022/01/07 07:06:47;;;;;;;10.48;3.95;;;4.50;84.50;;;;;;5034093;28;20053;-85
2022/01/07 07:09:17;;;;;;;8.60;3.70;;;4.50;84.60;;;;;;5034023;28;20053;-85
2022/01/07 07:11:44;;;;;;;9.75;4.13;;;4.50;84.60;;;;;;5034898;28;20045;-85
2022/01/07 07:14:11;;;;;;;11.85;4.40;;;4.50;84.70;;;;;;5034706;28;20049;-85
2022/01/07 07:16:39;;;;;;;8.00;3.88;;;4.60;84.70;;;;;;5034683;28;20050;-85
2022/01/07 07:19:06;;;;;;;9.40;4.13;;;4.50;84.70;;;;;;5034924;28;20040;-85
2022/01/07 07:21:33;;;;;;;10.65;4.60;;;4.60;84.80;;;;;;5029479;28;20063;-85
2022/01/07 07:24:02;;;;;;;11.73;4.43;;;4.60;84.80;;;;;;5034445;28;20395;-85
2022/01/07 07:26:29;;;;;;;10.23;4.47;;;4.60;84.80;;;;;;5034384;28;20061;-85
2022/01/07 07:28:56;;;;;;;9.52;4.65;;;4.60;84.80;;;;;;5034397;28;20046;-85
2022/01/07 07:31:23;;;;;;;10.95;4.45;;;4.60;84.90;;;;;;5034486;28;20524;-85
2022/01/07 07:36:27;;;;;;;12.85;5.15;;;4.60;84.90;;;;;;5031510;28;20046;-85
2022/01/07 07:38:56;;;;;;;11.35;5.22;;;4.60;84.90;;;;;;5034133;28;20691;-85
2022/01/07 07:41:23;;;;;;;11.98;5.18;;;4.60;84.90;;;;;;5033991;28;20064;-85
2022/01/07 07:43:50;;;;;;;13.57;6.05;;;4.60;84.90;;;;;;5034069;28;20053;-85
2022/01/07 07:46:19;;;;;;;14.98;5.53;;;4.60;84.90;;;;;;5034312;28;20064;-85
2022/01/07 07:48:47;;;;;;;12.88;6.00;;;4.60;84.90;;;;;;5033384;28;20050;-84
2022/01/07 07:51:15;;;;;;;10.43;5.35;;;4.60;85.00;;;;;;5027277;28;20052;-84
2022/01/07 07:53:43;;;;;;;12.25;5.38;;;4.60;85.00;;;;;;5026553;28;20391;-84
2022/01/07 07:56:12;;;;;;;13.60;5.53;;;4.60;85.00;;;;;;5027821;28;20045;-84
2022/01/07 07:58:40;;;;;;;14.45;5.28;;;4.60;85.00;;;;;;5028276;28;20042;-84
2022/01/07 08:01:09;;;;;;;16.23;5.95;;;4.60;85.00;;;;;;5012947;28;20047;-84
2022/01/07 08:03:36;;;;;;;14.15;5.45;;;4.60;85.00;;;;;;5015475;28;20052;-84
2022/01/07 08:06:03;;;;;;;18.23;5.80;;;4.60;85.00;;;;;;5026087;28;20079;-85
2022/01/07 08:08:33;;;;;;;13.30;5.43;;;4.70;85.00;;;;;;5028408;28;20502;-85
2022/01/07 08:11:04;;;;;;;11.07;5.50;;;4.60;85.00;;;;;;5025184;28;20042;-84
2022/01/07 08:15:57;;;;;;;12.85;4.95;;;4.60;85.00;;;;;;5013587;28;20042;-85
2022/01/07 08:16:19;;;;;;;12.73;5.68;;;4.70;85.00;;;;;;5014520;28;20050;-85
2022/01/07 08:18:56;;;;;;;13.45;5.80;;;4.70;85.00;;;;;;5011363;28;20053;-85
2022/01/07 08:21:26;;;;;;;11.77;4.78;;;4.60;85.10;;;;;;5016856;28;20056;-84
2022/01/07 08:23:54;;;;;;;9.82;4.65;;;4.60;85.00;;;;;;5016730;28;20046;-84
2022/01/07 08:26:23;;;;;;;9.75;4.82;;;4.60;85.10;;;;;;5016429;28;20046;-85
2022/01/07 08:28:55;;;;;;;12.55;4.40;;;4.70;85.10;;;;;;5016705;28;20128;-84
2022/01/07 08:36:47;;;;;;;13.63;4.18;;;4.70;85.10;;;;;;5027859;28;20048;-84
2022/01/07 08:39:14;;;;;;;10.15;4.15;;;4.70;85.10;;;;;;5016337;28;20419;-85
2022/01/07 08:41:42;;;;;;;11.50;3.55;;;4.70;85.10;;;;;;5022203;28;20041;-85
2022/01/07 08:44:11;;;;;;;8.63;3.60;;;4.70;85.00;;;;;;5024646;28;20253;-84
2022/01/07 08:46:39;;;;;;;12.93;3.63;;;4.70;85.00;;;;;;5027029;28;20051;-84
2022/01/07 08:49:06;;;;;;;9.73;3.17;;;4.70;85.00;;;;;;5012544;28;20041;-84
2022/01/07 08:51:33;;;;;;;13.93;3.20;;;4.70;85.00;;;;;;5027753;28;20053;-84
2022/01/07 08:54:00;;;;;;;9.82;3.33;;;4.70;85.00;;;;;;5015913;28;20057;-84
2022/01/07 08:56:27;;;;;;;7.15;2.90;;;4.70;85.00;;;;;;5016793;28;20041;-84
2022/01/07 08:58:56;;;;;;;9.60;3.10;;;4.70;85.00;;;;;;5016026;28;20052;-84
2022/01/07 09:01:28;;;;;;;7.72;3.05;;;4.70;85.10;;;;;;5027064;28;20129;-85
2022/01/07 09:03:56;;;;;;;9.95;3.20;;;4.70;85.10;;;;;;5015621;28;20107;-84
2022/01/07 09:06:23;;;;;;;12.10;3.10;;;4.70;85.00;;;;;;5020334;28;20502;-85
2022/01/07 09:08:50;;;;;;;9.68;3.47;;;4.70;85.10;;;;;;5027038;28;20038;-85
2022/01/07 09:11:17;;;;;;;6.50;2.67;;;4.70;85.10;;;;;;5026494;28;20045;-85
2022/01/07 09:13:45;;;;;;;7.15;3.13;;;4.80;85.10;;;;;;5021070;28;20050;-85
2022/01/07 09:16:12;;;;;;;9.65;2.60;;;4.70;85.10;;;;;;5030943;28;20418;-85
2022/01/07 09:18:40;;;;;;;12.13;3.22;;;4.80;85.10;;;;;;5018769;28;20077;-84
2022/01/07 09:21:10;;;;;;;9.63;2.75;;;4.80;85.10;;;;;;5030531;28;20049;-85
2022/01/07 09:23:41;;;;;;;10.32;3.00;;;4.90;85.10;;;;;;5028517;28;20049;-84
2022/01/07 09:26:09;;;;;;;10.07;2.83;;;4.90;85.10;;;;;;5027265;28;20046;-84
2022/01/07 09:28:37;;;;;;;7.97;2.75;;;4.90;85.10;;;;;;5020427;28;20045;-85
2022/01/07 09:31:04;;;;;;;6.32;2.58;;;4.90;85.10;;;;;;5015980;28;20053;-85
2022/01/07 09:33:31;;;;;;;6.00;2.20;;;4.90;85.10;;;;;;5027306;28;20049;-85
2022/01/07 09:36:18;;;;;;;10.23;2.63;;;4.90;85.00;;;;;;5032958;28;20512;-85
2022/01/07 09:38:45;;;;;;;5.28;2.00;;;4.90;85.00;;;;;;5025564;28;20049;-85
2022/01/07 09:41:12;;;;;;;9.13;1.95;;;4.90;85.00;;;;;;5026436;28;20077;-85
2022/01/07 09:43:43;;;;;;;6.30;1.90;;;4.90;85.00;;;;;;5016567;28;20042;-85
2022/01/07 09:46:15;;;;;;;6.80;1.92;;;4.90;84.90;;;;;;5030188;28;20052;-84
2022/01/07 09:48:43;;;;;;;7.22;1.83;;;4.90;84.90;;;;;;5017898;28;20469;-86
2022/01/07 09:51:11;;;;;;;5.03;1.60;;;4.90;84.80;;;;;;5029665;28;20548;-85
2022/01/07 09:53:39;;;;;;;5.20;1.50;;;4.90;84.80;;;;;;5022224;28;20046;-86
2022/01/07 09:56:07;;;;;;;6.82;1.30;;;4.90;84.80;;;;;;5019636;28;20049;-85
2022/01/07 09:58:34;;;;;;;6.40;1.50;;;4.90;84.80;;;;;;5019002;28;20042;-86
2022/01/07 10:01:05;;;;;;;4.97;1.20;;;4.90;84.70;;;;;;5015229;28;20133;-85
2022/01/07 10:03:41;;;;;;;3.05;1.40;;;4.90;84.70;;;;;;5030581;28;20056;-85
2022/01/07 10:06:23;;;;;;;4.15;1.40;;;5.00;84.70;;;;;;5019863;28;20511;-85
2022/01/07 10:09:20;;;;;;;4.07;1.00;;;5.00;84.60;;;;;;5018904;28;20048;-85
2022/01/07 10:12:02;;;;;;;2.85;1.02;;;5.00;84.60;;;;;;5016514;28;20520;-85
2022/01/07 10:14:30;;;;;;;2.97;1.25;;;5.00;84.60;;;;;;5022437;28;20048;-85
2022/01/07 10:16:59;;;;;;;3.28;1.40;;;5.00;84.60;;;;;;5019121;28;20047;-86
2022/01/07 10:19:36;;;;;;;5.43;1.40;;;5.00;84.50;;;;;;5017476;28;20060;-85
2022/01/07 10:22:10;;;;;;;4.32;1.50;;;5.00;84.50;;;;;;5015862;28;20042;-84
2022/01/07 10:25:02;;;;;;;3.03;1.33;;;5.00;84.50;;;;;;5030157;28;20071;-85
2022/01/07 10:27:37;;;;;;;4.20;1.40;;;5.00;84.50;;;;;;5023388;28;20041;-85
2022/01/07 10:30:15;;;;;;;2.83;1.13;;;5.00;84.50;;;;;;5013540;28;20049;-85
2022/01/07 10:32:43;;;;;;;8.95;1.75;;;5.00;84.50;;;;;;5018731;28;20499;-85
2022/01/07 10:35:14;;;;;;;4.65;1.40;;;5.00;84.50;;;;;;5018718;28;20141;-85
2022/01/07 10:38:00;;;;;;;7.20;2.00;;;5.10;84.50;;;;;;5018482;28;20045;-85
2022/01/07 10:40:27;;;;;;;4.32;1.02;;;5.00;84.40;;;;;;5017348;28;20053;-85
2022/01/07 10:43:13;;;;;;;5.03;1.25;;;5.10;84.40;;;;;;5015355;28;20426;-85
2022/01/07 10:45:46;;;;;;;5.07;1.48;;;5.10;84.40;;;;;;5029263;28;20046;-84
2022/01/07 10:48:14;;;;;;;1.80;0.75;;;5.10;84.30;;;;;;5029080;28;20054;-85
2022/01/07 10:50:47;;;;;;;3.63;1.20;;;5.10;84.20;;;;;;5021260;28;20042;-85
2022/01/07 10:53:24;;;;;;;7.93;1.35;;;5.10;84.20;;;;;;5018311;28;20046;-84
2022/01/07 10:56:19;;;;;;;2.75;1.00;;;5.10;84.10;;;;;;5017255;28;20489;-85
2022/01/07 10:58:46;;;;;;;4.72;1.35;;;5.20;84.00;;;;;;5025794;28;20042;-84
2022/01/07 11:01:19;;;;;;;3.63;1.00;;;5.20;83.90;;;;;;5014703;28;20059;-84
2022/01/07 11:03:50;;;;;;;5.65;0.90;;;5.20;83.90;;;;;;5014838;28;20042;-84
2022/01/07 11:06:18;;;;;;;5.38;0.93;;;5.20;83.80;;;;;;5013265;28;20079;-84
2022/01/07 11:08:48;;;;;;;6.13;0.95;;;5.20;83.70;;;;;;5019931;28;20054;-84
2022/01/07 11:11:15;;;;;;;3.10;0.77;;;5.10;83.60;;;;;;5018007;28;20049;-84
2022/01/07 11:13:43;;;;;;;2.72;0.95;;;5.10;83.60;;;;;;5017595;28;20041;-84
2022/01/07 11:16:10;;;;;;;5.78;0.88;;;5.20;83.50;;;;;;5012323;28;20069;-84
2022/01/07 11:18:40;;;;;;;5.53;0.90;;;5.10;83.40;;;;;;5017375;28;20060;-84
2022/01/07 11:21:09;;;;;;;4.25;0.75;;;5.10;83.40;;;;;;5018352;28;20502;-84
2022/01/07 11:23:41;;;;;;;4.40;0.63;;;5.10;83.30;;;;;;5022649;28;20474;-84
2022/01/07 11:26:11;;;;;;;4.40;0.93;;;5.00;83.20;;;;;;5023721;28;20049;-84
2022/01/07 11:28:57;;;;;;;4.82;0.95;;;5.00;83.20;;;;;;5054768;28;20052;-84
2022/01/07 11:31:24;;;;;;;5.50;0.95;;;5.00;83.20;;;;;;5015916;28;20053;-84
2022/01/07 11:34:19;;;;;;;3.50;0.70;;;5.00;83.20;;;;;;5015389;28;20422;-84
2022/01/07 11:36:46;;;;;;;3.92;0.90;;;5.00;83.30;;;;;;5015008;28;20057;-84
2022/01/07 11:39:14;;;;;;;3.90;0.80;;;4.90;83.30;;;;;;5017812;28;20050;-84
2022/01/07 11:41:50;;;;;;;4.93;0.93;;;4.90;83.30;;;;;;5017333;28;20478;-84
2022/01/07 11:44:29;;;;;;;2.92;0.70;;;4.90;83.30;;;;;;5017497;28;20045;-85
2022/01/07 11:47:21;;;;;;;5.93;0.70;;;4.90;83.30;;;;;;5017450;28;20049;-85
2022/01/07 11:50:04;;;;;;;4.22;0.90;;;4.90;83.40;;;;;;5017736;28;20046;-84
2022/01/07 11:52:37;;;;;;;7.68;1.50;;;4.80;83.40;;;;;;5016549;28;20128;-84
2022/01/07 11:55:26;;;;;;;9.13;1.35;;;4.80;83.40;;;;;;5012712;28;20661;-84
2022/01/07 11:57:54;;;;;;;5.50;0.98;;;4.80;83.40;;;;;;5028665;28;20046;-84
2022/01/07 12:01:00;;;;;;;2.83;0.73;;;4.80;83.50;;;;;;5017259;28;20052;-85
2022/01/07 12:03:32;;;;;;;4.30;0.80;;;4.80;83.50;;;;;;5017031;28;20081;-84
2022/01/07 12:06:01;;;;;;;8.38;1.35;;;4.80;83.50;;;;;;5016583;28;20069;-84
2022/01/07 12:08:39;;;;;;;3.70;1.10;;;4.70;83.50;;;;;;5017001;28;20056;-85
2022/01/07 12:11:10;;;;;;;4.13;0.80;;;4.70;83.60;;;;;;5016912;28;20046;-84
2022/01/07 12:13:39;;;;;;;4.22;0.93;;;4.70;83.60;;;;;;5048838;28;20060;-85
2022/01/07 12:16:07;;;;;;;3.38;0.93;;;4.70;83.60;;;;;;5013369;28;20045;-84
2022/01/07 12:18:35;;;;;;;5.03;1.10;;;4.70;83.60;;;;;;5028924;28;20084;-84
2022/01/07 12:21:02;;;;;;;2.85;0.88;;;4.70;83.60;;;;;;5017835;28;20046;-85
2022/01/07 12:23:29;;;;;;;3.58;0.75;;;4.70;83.70;;;;;;5021006;28;20045;-85
2022/01/07 12:26:01;;;;;;;4.68;1.13;;;4.70;83.70;;;;;;5025021;28;20056;-85
2022/01/07 12:28:28;;;;;;;2.25;0.70;;;4.70;83.70;;;;;;5028186;28;20441;-85
2022/01/07 12:31:09;;;;;;;4.60;0.80;;;4.70;83.80;;;;;;5013981;28;20046;-84
2022/01/07 12:33:55;;;;;;;3.20;0.80;;;4.70;83.80;;;;;;5028583;28;20127;-85
2022/01/07 12:36:30;;;;;;;3.38;0.75;;;4.60;83.80;;;;;;5016992;28;20053;-85
2022/01/07 12:39:01;;;;;;;2.70;0.80;;;4.60;83.80;;;;;;5016389;28;20053;-84
2022/01/07 12:41:28;;;;;;;5.78;0.90;;;4.70;83.80;;;;;;5031895;28;20391;-84
2022/01/07 12:44:10;;;;;;;3.78;0.82;;;4.60;83.80;;;;;;5016918;28;20045;-85
2022/01/07 12:46:39;;;;;;;1.95;0.80;;;4.70;83.90;;;;;;5016638;28;20053;-84
2022/01/07 12:49:08;;;;;;;2.83;0.70;;;4.70;83.90;;;;;;5014231;28;20053;-84
2022/01/07 12:51:36;;;;;;;3.22;0.80;;;4.70;84.00;;;;;;5028325;28;20053;-85
2022/01/07 12:54:07;;;;;;;6.45;0.90;;;4.70;84.00;;;;;;5011363;28;20050;-85
2022/01/07 12:56:37;;;;;;;2.97;0.80;;;4.70;84.20;;;;;;5015436;28;20046;-83
2022/01/07 12:59:21;;;;;;;3.75;0.75;;;4.80;84.30;;;;;;5015335;28;20041;-85
2022/01/07 13:01:49;;;;;;;5.30;0.98;;;4.80;84.40;;;;;;5013248;28;20050;-85
2022/01/07 13:04:22;;;;;;;9.65;0.98;;;4.90;84.50;;;;;;5013901;28;20510;-84
2022/01/07 13:06:52;;;;;;;3.58;0.70;;;4.90;84.50;;;;;;5027938;28;20060;-84
2022/01/07 13:09:24;;;;;;;5.00;0.98;;;5.00;84.60;;;;;;5016358;28;20060;-85
2022/01/07 13:11:54;;;;;;;3.00;0.85;;;5.00;84.50;;;;;;5016463;28;20092;-84